Portada
METAR-TAF:

METAR-TAF

Aeroports :

Mineralnye Vody, Rússia

latitud: 44-14N, longitud: 043-04E, altitud: 314 m

Observació

L'informe es va fer fa 11 minuts, a les 02:30 UTC
Vent 6 kt del Nord-Oest
Temperatura 17°C
Humitat 77%
Pressió 1011 hPa
Visibilitat 10 km o més

METAR: URMM 190230Z 31003MPS 9999 NSC 17/13 Q1011 R12/090070 NOSIG RMK QFE730/0973

Hora: 05:41 (02:41 UTC)

Pronòstic

L'informe es va fer fa 41 minuts, a les 02:00 UTC
Pronòstic vàlid del 19 a les 03 UTC al 20 a les 03 UTC
Vent 6 kt del Est amb ràfegues de 16 kt
Visibilitat 10 km o més
Temporalment
l' 19 a les 03 UTC al 19 a les 06 UTC
Vent 6 kt del Oest amb ràfegues de 16 kt

TAF: URMM 190200Z 1903/2003 10003G08MPS 9999 NSC TX33/1912Z TN16/2002Z TEMPO 1903/1906 28003G08MPS

Observacions i pronòstics meteorològics de més de 4000 aeroports (METAR i TAF).

Les estacions disponibles són els punts grocs i vermells al mapa.

Posi el ratolí al punt desitjat per veure el nom de l'estació.

Feu clic per veure les observacions i els pronòstics meteorològics.

Per canviar el mapa: feu clic els botons verds amb una creu de color negre per apropar; al botó verd amb un guió per allunyar la imatge; o en les fletxes verdes per a mapes adjacents.


METAR-TAF: